Time;durP1;ratioP1;P1;durP2;ratioP2;P2;SDS_P1;SDS_P2;PMS_P1;PMS_P2;Temp;Humidity;BMP_temperature;BMP_pressure;BME280_temperature;BME280_humidity;BME280_pressure;Samples;Min_cycle;Max_cycle;Signal;HPM_P1;HPM_P2
2021/10/10 09:34:49;;;;;;;34.13;28.23;;;9.40;99.90;;;;;;5103837;27;20354;-73
2021/10/10 09:37:33;;;;;;;34.93;30.07;;;9.30;99.90;;;;;;5085722;28;20519;-72
2021/10/10 09:40:09;;;;;;;37.73;27.53;;;9.40;99.90;;;;;;5067310;28;20488;-76
2021/10/10 09:42:38;;;;;;;35.30;29.37;;;9.40;99.90;;;;;;5071263;28;20370;-79
2021/10/10 09:45:22;;;;;;;36.67;28.60;;;9.50;99.90;;;;;;5068317;28;20062;-76
2021/10/10 09:47:50;;;;;;;37.90;31.33;;;9.60;99.90;;;;;;5087001;28;20040;-76
2021/10/10 09:50:19;;;;;;;35.47;28.47;;;9.70;99.90;;;;;;5068360;28;20048;-79
2021/10/10 09:52:45;;;;;;;32.60;28.30;;;9.80;99.90;;;;;;5084905;28;20089;-78
2021/10/10 09:55:12;;;;;;;33.97;29.57;;;10.00;99.90;;;;;;5086511;28;20056;-73
2021/10/10 09:57:47;;;;;;;36.37;29.80;;;10.10;99.90;;;;;;5067917;28;20044;-75
2021/10/10 10:00:23;;;;;;;34.60;27.60;;;10.20;99.90;;;;;;5085377;28;20040;-80
2021/10/10 10:02:50;;;;;;;32.67;26.53;;;10.40;99.90;;;;;;5068794;28;20051;-83
2021/10/10 10:05:25;;;;;;;35.10;26.70;;;10.50;99.90;;;;;;5070181;28;20412;-86
2021/10/10 10:07:52;;;;;;;36.03;27.87;;;10.70;99.90;;;;;;5094285;28;20123;-86
2021/10/10 10:10:18;;;;;;;30.50;26.63;;;10.80;99.90;;;;;;5074364;28;20477;-80
2021/10/10 10:12:47;;;;;;;31.97;28.50;;;10.90;99.90;;;;;;5086733;28;20143;-76
2021/10/10 10:15:19;;;;;;;31.73;26.87;;;11.00;99.90;;;;;;5068230;28;20044;-73
2021/10/10 10:17:55;;;;;;;32.07;26.73;;;11.20;99.90;;;;;;5072146;28;20045;-82
2021/10/10 10:20:22;;;;;;;35.93;30.73;;;11.40;99.90;;;;;;5074449;28;20142;-82
2021/10/10 10:22:52;;;;;;;31.97;28.33;;;11.50;99.90;;;;;;5089267;28;20052;-81
2021/10/10 10:25:24;;;;;;;30.30;27.20;;;11.70;99.90;;;;;;5052909;28;20484;-78
2021/10/10 10:27:54;;;;;;;34.13;27.37;;;11.80;99.90;;;;;;5083753;28;20092;-75
2021/10/10 10:30:23;;;;;;;33.80;29.10;;;11.90;99.90;;;;;;5070086;28;20059;-81
2021/10/10 10:32:55;;;;;;;34.73;28.67;;;12.10;99.90;;;;;;5069048;28;20060;-77
2021/10/10 10:35:22;;;;;;;31.80;27.13;;;12.20;99.60;;;;;;5066899;28;20071;-77
2021/10/10 10:37:59;;;;;;;31.53;28.33;;;12.30;99.00;;;;;;5053595;28;20044;-77
2021/10/10 10:40:30;;;;;;;32.88;28.05;;;12.40;99.10;;;;;;5049982;28;20056;-76
2021/10/10 10:42:58;;;;;;;32.03;28.63;;;12.50;99.00;;;;;;5066046;28;20090;-76
2021/10/10 10:45:37;;;;;;;34.80;28.60;;;12.70;98.90;;;;;;5076258;28;20048;-79
2021/10/10 10:48:29;;;;;;;35.93;29.07;;;12.80;98.60;;;;;;5052666;28;20105;-78
2021/10/10 10:51:22;;;;;;;32.77;27.43;;;13.00;98.40;;;;;;5053128;28;20105;-74
2021/10/10 10:53:49;;;;;;;33.37;28.03;;;13.20;98.00;;;;;;5053508;28;20408;-82
2021/10/10 10:56:32;;;;;;;33.27;29.37;;;13.40;97.60;;;;;;5070655;28;20044;-80
2021/10/10 10:58:58;;;;;;;31.33;27.77;;;13.50;96.70;;;;;;5053642;28;20131;-79
2021/10/10 11:01:25;;;;;;;33.20;27.77;;;13.50;96.30;;;;;;5071578;28;20052;-79
2021/10/10 11:03:50;;;;;;;31.87;28.60;;;13.60;96.30;;;;;;5052443;28;20048;-81
2021/10/10 11:06:17;;;;;;;38.40;34.33;;;13.70;96.10;;;;;;5071335;28;20386;-80
2021/10/10 11:08:43;;;;;;;31.50;27.97;;;13.80;96.20;;;;;;5052465;28;20435;-80
2021/10/10 11:11:23;;;;;;;34.13;28.60;;;13.90;95.80;;;;;;5053400;28;20044;-80
2021/10/10 11:14:02;;;;;;;30.47;27.23;;;14.10;95.20;;;;;;5071004;28;20080;-81
2021/10/10 11:16:32;;;;;;;31.00;27.77;;;14.10;94.90;;;;;;5052817;28;20054;-78
2021/10/10 11:19:09;;;;;;;36.10;27.93;;;14.20;94.80;;;;;;5070980;28;20048;-79
2021/10/10 11:21:45;;;;;;;32.57;27.93;;;14.30;94.00;;;;;;5053498;28;20369;-80
2021/10/10 13:40:14;;;;;;;45.37;34.40;;;15.00;91.40;;;;;;5104754;27;20117;-74
2021/10/10 13:42:40;;;;;;;44.63;37.33;;;15.00;93.80;;;;;;5086388;28;20574;-81
2021/10/10 13:45:06;;;;;;;46.37;35.47;;;15.00;93.90;;;;;;5084684;28;20079;-74
2021/10/10 13:47:33;;;;;;;43.63;36.07;;;15.00;93.90;;;;;;5085220;28;20044;-74
